El-djazair II — 7TBR — position and weather

sailwx.info

Track history (hours):
 
Tides and Currents Weather Stations Pressure Air Temp Water Temp Dewpoint Dewpoint Depression Visibility Wind Speed Wind Dir Waves Ship Positions

El-djazair II

Last reported at 2016-Jun-27 04:31 UTC. Time now 2016-Jun-27 07:51 UTC.
Position N 38°45' E 001°44'.

Length 146 m; draft 6.3 m.

Type: Passenger vessel. MMSI: 605026190.

Date/timePositionNaut miles runAvg speedWind from/ knotsBaromVisibWave heightAir tempDewpointWater temp
2016-Jun-27 04:31N 38°45' E 001°44'2222.3
2016-Jun-27 03:33N 39°05' E 001°54'2221.9
2016-Jun-27 02:33N 39°25' E 002°06'2221.9
2016-Jun-27 01:33N 39°44' E 002°19'2221.9
2016-Jun-27 00:33N 40°03' E 002°35'2222.0
2016-Jun-26 23:33N 40°21' E 002°51'2222.4
2016-Jun-26 22:33N 40°40' E 003°06'2322.7
2016-Jun-26 21:33N 40°59' E 003°23'2322.6
2016-Jun-26 20:33N 41°18' E 003°40'2322.8
2016-Jun-26 19:33N 41°38' E 003°55'  
2016-Jun-23 17:20N 42°41' E 005°30'47 1.6
2016-Jun-22 12:31N 42°22' E 004°33'2223.4
2016-Jun-22 11:33N 42°03' E 004°16'2322.9
2016-Jun-22 10:33N 41°43' E 004°00'2623.0
2016-Jun-22 09:26N 41°21' E 003°42'2022.9
2016-Jun-22 08:33N 41°04' E 003°27'2222.8
2016-Jun-22 07:33N 40°45' E 003°11'2322.6
2016-Jun-22 06:34N 40°26' E 002°55'2323.2
2016-Jun-22 05:33N 40°07' E 002°38'2323.2
2016-Jun-22 04:33N 39°47' E 002°22'2322.9
2016-Jun-22 03:33N 39°28' E 002°07'2322.6
2016-Jun-22 02:33N 39°06' E 001°56'2222.3
2016-Jun-22 01:33N 38°46' E 001°45'9022.3
2016-Jun-21 21:31N 37°29' E 000°46'2121.8
2016-Jun-21 20:33N 37°11' E 000°31'2221.5
2016-Jun-21 19:33N 36°53' E 000°17'2321.3
2016-Jun-21 18:27N 36°32' E 000°03'4221.1
2016-Jun-21 16:29N 35°60' W 000°29'1819.4
2016-Jun-21 15:33N 35°43' W 000°38'57 5.7
2016-Jun-21 05:33N 36°25' E 000°10'2120.6
2016-Jun-21 04:33N 36°45' E 000°15'2020.3
2016-Jun-21 03:33N 37°05' E 000°19'2220.2
2016-Jun-21 02:28N 37°26' E 000°25'3317.4
2016-Jun-21 00:33N 37°59' E 000°13'2322.1
2016-Jun-20 23:30N 38°10' W 000°12'7 0.4
2016-Jun-20 07:28N 38°12' W 000°21'2021.6
2016-Jun-20 06:33N 37°52' W 000°23'2120.7
2016-Jun-20 05:33N 37°31' W 000°25'2320.4
2016-Jun-20 04:26N 37°08' W 000°28'1820.9
2016-Jun-20 03:33N 36°50' W 000°30'2121.2
2016-Jun-20 02:33N 36°29' W 000°32'2421.6
2016-Jun-20 01:25N 36°05' W 000°35'22 9.4
2016-Jun-19 23:04N 35°43' W 000°39'0 0.0
2016-Jun-19 19:18N 35°43' W 000°39'0 0.0
2016-Jun-19 18:33N 35°43' W 000°39'0 0.0
2016-Jun-19 17:33N 35°43' W 000°39'24 0.7
2016-Jun-18 07:17N 36°05' W 000°27'1620.5
2016-Jun-18 06:30N 36°20' W 000°20'2020.0
2016-Jun-18 05:30N 36°39' W 000°11'1919.9
2016-Jun-18 04:33N 36°57' W 000°03'2019.7
2016-Jun-18 03:33N 37°15' E 000°05'2319.7
2016-Jun-18 02:25N 37°36' E 000°16'1820.9
2016-Jun-18 01:31N 37°54' E 000°24'2020.3
2016-Jun-18 00:33N 38°04' E 000°03'19 1.0
2016-Jun-17 06:25N 38°17' W 000°15'1921.3
2016-Jun-17 05:31N 38°13' E 000°09'1919.4
2016-Jun-17 04:33N 37°55' E 000°11'  
Track history (hours):
 
Tides and Currents Weather Stations Pressure Air Temp Water Temp Dewpoint Dewpoint Depression Visibility Wind Speed Wind Dir Waves Ship Positions

El-djazair II

Last reported at 2016-Jun-27 04:31 UTC. Time now 2016-Jun-27 07:51 UTC.
Position N 38°45' E 001°44'.

Length 146 m; draft 6.3 m.

Type: Passenger vessel. MMSI: 605026190.

Date/timePositionNaut miles runAvg speedWind from/ knotsBaromVisibWave heightAir tempDewpointWater temp
2016-Jun-27 04:31N 38°45' E 001°44'2222.3
2016-Jun-27 03:33N 39°05' E 001°54'2221.9
2016-Jun-27 02:33N 39°25' E 002°06'2221.9
2016-Jun-27 01:33N 39°44' E 002°19'2221.9
2016-Jun-27 00:33N 40°03' E 002°35'2222.0
2016-Jun-26 23:33N 40°21' E 002°51'2222.4
2016-Jun-26 22:33N 40°40' E 003°06'2322.7
2016-Jun-26 21:33N 40°59' E 003°23'2322.6
2016-Jun-26 20:33N 41°18' E 003°40'2322.8
2016-Jun-26 19:33N 41°38' E 003°55'  
2016-Jun-23 17:20N 42°41' E 005°30'47 1.6
2016-Jun-22 12:31N 42°22' E 004°33'2223.4
2016-Jun-22 11:33N 42°03' E 004°16'2322.9
2016-Jun-22 10:33N 41°43' E 004°00'2623.0
2016-Jun-22 09:26N 41°21' E 003°42'2022.9
2016-Jun-22 08:33N 41°04' E 003°27'2222.8
2016-Jun-22 07:33N 40°45' E 003°11'2322.6
2016-Jun-22 06:34N 40°26' E 002°55'2323.2
2016-Jun-22 05:33N 40°07' E 002°38'2323.2
2016-Jun-22 04:33N 39°47' E 002°22'2322.9
2016-Jun-22 03:33N 39°28' E 002°07'2322.6
2016-Jun-22 02:33N 39°06' E 001°56'2222.3
2016-Jun-22 01:33N 38°46' E 001°45'9022.3
2016-Jun-21 21:31N 37°29' E 000°46'2121.8
2016-Jun-21 20:33N 37°11' E 000°31'2221.5
2016-Jun-21 19:33N 36°53' E 000°17'2321.3
2016-Jun-21 18:27N 36°32' E 000°03'4221.1
2016-Jun-21 16:29N 35°60' W 000°29'1819.4
2016-Jun-21 15:33N 35°43' W 000°38'57 5.7
2016-Jun-21 05:33N 36°25' E 000°10'2120.6
2016-Jun-21 04:33N 36°45' E 000°15'2020.3
2016-Jun-21 03:33N 37°05' E 000°19'2220.2
2016-Jun-21 02:28N 37°26' E 000°25'3317.4
2016-Jun-21 00:33N 37°59' E 000°13'2322.1
2016-Jun-20 23:30N 38°10' W 000°12'7 0.4
2016-Jun-20 07:28N 38°12' W 000°21'2021.6
2016-Jun-20 06:33N 37°52' W 000°23'2120.7
2016-Jun-20 05:33N 37°31' W 000°25'2320.4
2016-Jun-20 04:26N 37°08' W 000°28'1820.9
2016-Jun-20 03:33N 36°50' W 000°30'2121.2
2016-Jun-20 02:33N 36°29' W 000°32'2421.6
2016-Jun-20 01:25N 36°05' W 000°35'22 9.4
2016-Jun-19 23:04N 35°43' W 000°39'0 0.0
2016-Jun-19 19:18N 35°43' W 000°39'0 0.0
2016-Jun-19 18:33N 35°43' W 000°39'0 0.0
2016-Jun-19 17:33N 35°43' W 000°39'24 0.7
2016-Jun-18 07:17N 36°05' W 000°27'1620.5
2016-Jun-18 06:30N 36°20' W 000°20'2020.0
2016-Jun-18 05:30N 36°39' W 000°11'1919.9
2016-Jun-18 04:33N 36°57' W 000°03'2019.7
2016-Jun-18 03:33N 37°15' E 000°05'2319.7
2016-Jun-18 02:25N 37°36' E 000°16'1820.9
2016-Jun-18 01:31N 37°54' E 000°24'2020.3
2016-Jun-18 00:33N 38°04' E 000°03'19 1.0
2016-Jun-17 06:25N 38°17' W 000°15'1921.3
2016-Jun-17 05:31N 38°13' E 000°09'1919.4
2016-Jun-17 04:33N 37°55' E 000°11'  

Dump ship's entire track history